createdAt,value
2023-05-10T00:00:21.470Z,62.46
2023-05-10T00:02:49.575Z,62.68
2023-05-10T00:05:17.647Z,62.67
2023-05-10T00:07:45.891Z,62.84
2023-05-10T00:10:14.143Z,63.56
2023-05-10T00:12:42.538Z,62.96
2023-05-10T00:15:11.425Z,63.24
2023-05-10T00:17:41.571Z,63.01
2023-05-10T00:20:10.550Z,62.88
2023-05-10T00:22:38.631Z,63.01
2023-05-10T00:25:08.028Z,62.74
2023-05-10T00:27:36.047Z,62.78
2023-05-10T00:30:04.238Z,63.00
2023-05-10T00:32:32.312Z,63.00
2023-05-10T00:35:01.993Z,62.63
2023-05-10T00:37:30.056Z,62.99
2023-05-10T00:39:58.101Z,62.79
2023-05-10T00:42:26.166Z,62.47
2023-05-10T00:44:54.283Z,62.61
2023-05-10T00:47:23.031Z,63.08
2023-05-10T00:49:51.175Z,62.51
2023-05-10T00:52:20.806Z,63.02
2023-05-10T00:54:49.923Z,63.05
2023-05-10T00:57:17.985Z,63.27
2023-05-10T00:59:46.094Z,62.38
2023-05-10T01:02:14.349Z,62.00
2023-05-10T01:04:42.912Z,61.79
2023-05-10T01:07:11.634Z,61.84
2023-05-10T01:09:41.315Z,62.11
2023-05-10T01:12:09.700Z,61.68
2023-05-10T01:14:38.433Z,61.44
2023-05-10T01:17:08.419Z,60.98
2023-05-10T01:19:38.789Z,60.32
2023-05-10T01:22:20.984Z,59.94
2023-05-10T01:25:13.708Z,59.69
2023-05-10T01:28:12.379Z,59.44
2023-05-10T01:31:25.325Z,60.61
2023-05-10T01:34:00.156Z,60.24
2023-05-10T01:36:32.934Z,60.08
2023-05-10T01:39:07.610Z,59.63
2023-05-10T01:41:45.380Z,59.33
2023-05-10T01:44:20.529Z,59.22
2023-05-10T01:46:54.423Z,59.40
2023-05-10T01:49:28.627Z,58.94
2023-05-10T01:52:01.976Z,58.50
2023-05-10T01:54:31.238Z,58.90
2023-05-10T01:57:05.253Z,59.42
2023-05-10T01:59:40.302Z,59.42
2023-05-10T02:02:09.304Z,59.58
2023-05-10T02:04:41.200Z,59.57
2023-05-10T02:07:10.956Z,59.68
2023-05-10T02:09:40.411Z,59.41
2023-05-10T02:12:09.838Z,58.97
2023-05-10T02:14:39.482Z,59.23
2023-05-10T02:17:09.982Z,58.98
2023-05-10T02:19:42.828Z,59.05
2023-05-10T02:22:11.966Z,59.47
2023-05-10T02:24:41.883Z,59.15
2023-05-10T02:27:12.017Z,59.38
2023-05-10T02:29:40.962Z,59.07
2023-05-10T02:32:10.889Z,59.29
2023-05-10T02:34:41.740Z,59.59
2023-05-10T02:37:10.809Z,59.07
2023-05-10T02:39:41.688Z,59.64
2023-05-10T02:42:10.582Z,59.61
2023-05-10T02:44:39.686Z,59.17
2023-05-10T02:47:07.719Z,58.46
2023-05-10T02:49:36.246Z,58.44
2023-05-10T02:52:10.133Z,58.66
2023-05-10T02:54:46.611Z,58.93
2023-05-10T02:57:20.428Z,58.78
2023-05-10T02:59:48.496Z,58.88
2023-05-10T03:02:16.744Z,59.22
2023-05-10T03:04:44.877Z,59.38
2023-05-10T03:07:14.488Z,59.28
2023-05-10T03:09:42.684Z,58.91
2023-05-10T03:12:17.887Z,58.30
2023-05-10T03:14:55.534Z,57.96
2023-05-10T03:17:31.353Z,58.00
2023-05-10T03:20:05.504Z,58.32
2023-05-10T03:22:39.724Z,58.13
2023-05-10T03:25:10.488Z,57.97
2023-05-10T03:27:41.268Z,58.07
2023-05-10T03:30:12.787Z,57.98
2023-05-10T03:32:41.258Z,57.96
2023-05-10T03:35:10.402Z,58.46
2023-05-10T03:37:40.082Z,58.57
2023-05-10T03:40:09.240Z,58.80
2023-05-10T03:42:37.362Z,59.13
2023-05-10T03:45:05.912Z,59.68
2023-05-10T03:47:34.100Z,59.54
2023-05-10T03:50:02.844Z,59.77
2023-05-10T03:52:30.961Z,59.42
2023-05-10T03:55:00.392Z,60.19
2023-05-10T03:57:28.432Z,60.25
2023-05-10T03:59:56.488Z,60.26
2023-05-10T04:02:24.790Z,60.38
2023-05-10T04:04:53.033Z,60.18
2023-05-10T04:07:21.149Z,59.86
2023-05-10T04:09:49.390Z,60.05
2023-05-10T04:12:18.919Z,60.60
2023-05-10T04:14:46.990Z,60.45
2023-05-10T04:17:15.303Z,60.15
2023-05-10T04:19:43.485Z,60.72
2023-05-10T04:22:11.824Z,60.10
2023-05-10T04:24:39.833Z,60.50
2023-05-10T04:27:07.851Z,59.82
2023-05-10T04:29:37.254Z,60.51
2023-05-10T04:32:05.832Z,60.01
2023-05-10T04:34:35.187Z,60.20
2023-05-10T04:37:03.289Z,60.33
2023-05-10T04:39:31.431Z,60.23
2023-05-10T04:41:59.444Z,60.16
2023-05-10T04:44:27.502Z,59.91
2023-05-10T04:46:57.078Z,60.49
2023-05-10T04:49:25.116Z,59.89
2023-05-10T04:51:53.366Z,59.68
2023-05-10T04:54:21.453Z,59.63
2023-05-10T04:56:49.613Z,59.71
2023-05-10T04:59:17.727Z,60.05
2023-05-10T05:01:45.865Z,59.80
2023-05-10T05:04:15.744Z,59.81
2023-05-10T05:06:43.836Z,59.61
2023-05-10T05:09:12.311Z,60.35
2023-05-10T05:11:41.435Z,60.03
2023-05-10T05:14:09.529Z,59.67
2023-05-10T05:16:37.651Z,59.25
2023-05-10T05:19:05.729Z,59.77
2023-05-10T05:21:35.285Z,59.39
2023-05-10T05:24:03.331Z,59.24
2023-05-10T05:26:31.449Z,59.37
2023-05-10T05:28:59.487Z,59.14
2023-05-10T05:31:27.480Z,59.26
2023-05-10T05:33:55.584Z,58.88
2023-05-10T05:36:23.860Z,58.91
2023-05-10T05:38:53.314Z,59.55
2023-05-10T05:41:22.624Z,59.26
2023-05-10T05:43:50.752Z,58.96
2023-05-10T05:46:18.902Z,58.96
2023-05-10T05:48:47.125Z,58.88
2023-05-10T05:51:15.165Z,58.76
2023-05-10T05:53:43.214Z,58.18
2023-05-10T05:56:12.702Z,57.81
2023-05-10T05:58:40.900Z,57.33
2023-05-10T06:01:09.530Z,56.92
2023-05-10T06:03:37.590Z,56.60
2023-05-10T06:06:06.277Z,56.77
2023-05-10T06:08:35.060Z,55.72
2023-05-10T06:11:05.258Z,55.94
2023-05-10T06:13:36.359Z,56.21
2023-05-10T06:16:05.132Z,56.20
2023-05-10T06:18:33.117Z,55.97
2023-05-10T06:21:01.095Z,55.65
2023-05-10T06:23:29.840Z,54.80
2023-05-10T06:25:57.823Z,54.93
2023-05-10T06:28:26.011Z,54.80
2023-05-10T06:30:55.412Z,55.51
2023-05-10T06:33:23.453Z,54.89
2023-05-10T06:35:51.511Z,55.16
2023-05-10T06:38:19.579Z,55.29
2023-05-10T06:40:47.597Z,54.44
2023-05-10T06:43:16.525Z,55.09
2023-05-10T06:45:44.569Z,54.10
2023-05-10T06:48:14.112Z,54.51
2023-05-10T06:50:42.206Z,54.09
2023-05-10T06:53:10.379Z,54.19
2023-05-10T06:55:38.404Z,53.36
2023-05-10T06:58:07.197Z,53.14
2023-05-10T07:00:35.437Z,52.94
2023-05-10T07:03:03.569Z,52.60
2023-05-10T07:05:33.099Z,52.58
2023-05-10T07:08:01.291Z,52.73
2023-05-10T07:10:29.533Z,52.72
2023-05-10T07:12:57.741Z,52.47
2023-05-10T07:15:25.799Z,51.75
2023-05-10T07:17:53.963Z,51.93
2023-05-10T07:20:22.063Z,51.27
2023-05-10T07:22:51.543Z,51.94
2023-05-10T07:25:19.738Z,51.31
2023-05-10T07:27:49.512Z,51.11
2023-05-10T07:30:17.643Z,50.91
2023-05-10T07:32:46.113Z,50.41
2023-05-10T07:35:14.392Z,50.53
2023-05-10T07:37:42.613Z,49.67
2023-05-10T07:40:12.993Z,49.30
2023-05-10T07:42:41.313Z,48.49
2023-05-10T07:45:11.364Z,47.51
2023-05-10T07:47:39.502Z,46.65
2023-05-10T07:50:09.357Z,43.61
2023-05-10T07:52:37.492Z,40.44
2023-05-10T07:55:06.456Z,37.18
2023-05-10T07:57:35.894Z,33.62
2023-05-10T08:00:04.140Z,31.70
2023-05-10T08:02:32.265Z,29.98
2023-05-10T08:05:00.337Z,29.84
2023-05-10T08:07:28.458Z,30.63
2023-05-10T08:09:57.305Z,31.22
2023-05-10T08:12:25.337Z,31.30
2023-05-10T08:14:54.783Z,30.39
2023-05-10T08:17:24.187Z,29.07
2023-05-10T08:19:52.842Z,27.91
2023-05-10T08:22:21.022Z,26.43
2023-05-10T08:24:49.069Z,25.29
2023-05-10T08:27:17.103Z,24.32
2023-05-10T08:29:50.147Z,24.43
2023-05-10T08:32:20.368Z,24.64
2023-05-10T08:34:48.399Z,26.14
2023-05-10T08:37:16.669Z,27.53
2023-05-10T08:39:44.716Z,28.99
2023-05-10T08:42:14.725Z,31.22
2023-05-10T08:44:43.427Z,31.99
2023-05-10T08:47:12.586Z,33.58
2023-05-10T08:49:43.863Z,34.36
2023-05-10T08:52:15.362Z,35.53
2023-05-10T08:54:43.979Z,35.87
2023-05-10T08:57:12.834Z,35.94
2023-05-10T08:59:41.167Z,35.47
2023-05-10T09:02:12.259Z,33.58
2023-05-10T09:04:42.151Z,30.71
2023-05-10T09:07:10.300Z,27.49
2023-05-10T09:09:39.262Z,24.74
2023-05-10T09:12:08.245Z,23.19
2023-05-10T09:14:37.914Z,23.01
2023-05-10T09:17:07.261Z,22.71
2023-05-10T09:19:35.387Z,22.49
2023-05-10T09:22:04.862Z,22.55
2023-05-10T09:24:33.115Z,23.57
2023-05-10T09:27:01.104Z,24.59
2023-05-10T09:29:40.894Z,25.02
2023-05-10T09:32:08.949Z,25.72
2023-05-10T09:34:41.047Z,25.73
2023-05-10T09:37:10.696Z,25.21
2023-05-10T09:39:40.003Z,23.91
2023-05-10T09:42:09.764Z,21.89
2023-05-10T09:44:39.090Z,20.00
2023-05-10T09:47:07.180Z,18.39
2023-05-10T09:49:35.302Z,17.31
2023-05-10T09:52:04.961Z,16.08
2023-05-10T09:54:35.238Z,15.40
2023-05-10T09:57:03.473Z,15.30
2023-05-10T09:59:32.234Z,15.58
2023-05-10T10:02:02.343Z,16.05
2023-05-10T10:04:31.022Z,16.61
2023-05-10T10:07:04.610Z,17.82
2023-05-10T10:09:35.367Z,20.45
2023-05-10T10:12:04.776Z,22.18
2023-05-10T10:14:33.094Z,22.82
2023-05-10T10:19:36.449Z,24.25
2023-05-10T10:22:05.239Z,25.32
2023-05-10T10:24:34.895Z,26.51
2023-05-10T10:27:11.432Z,26.91
2023-05-10T10:29:46.917Z,27.71
2023-05-10T10:32:28.161Z,28.31
2023-05-10T10:34:57.926Z,29.30
2023-05-10T10:37:43.382Z,29.91
2023-05-10T10:40:34.633Z,30.63
2023-05-10T10:43:25.098Z,30.80
2023-05-10T10:46:13.692Z,31.54
2023-05-10T10:48:42.218Z,31.72
2023-05-10T10:51:12.697Z,31.46
2023-05-10T10:53:42.134Z,31.76
2023-05-10T10:56:14.560Z,32.15
2023-05-10T10:58:43.312Z,32.29
2023-05-10T11:01:13.282Z,32.79
2023-05-10T11:03:41.441Z,33.14
2023-05-10T11:06:10.189Z,33.30
2023-05-10T11:08:45.564Z,32.95
2023-05-10T11:11:17.107Z,33.63
2023-05-10T11:13:49.202Z,33.54
2023-05-10T11:16:21.166Z,33.39
2023-05-10T11:18:59.584Z,33.29
2023-05-10T11:21:27.806Z,33.90
2023-05-10T11:23:58.467Z,33.93
2023-05-10T11:26:32.348Z,34.16
2023-05-10T11:29:01.908Z,33.65
2023-05-10T11:31:31.093Z,34.07
2023-05-10T11:34:02.776Z,33.72
2023-05-10T11:36:32.184Z,33.75
2023-05-10T11:39:00.490Z,33.58
2023-05-10T11:41:31.729Z,32.96
2023-05-10T11:44:01.127Z,32.71
2023-05-10T11:46:30.546Z,32.64
2023-05-10T11:49:02.823Z,32.61
2023-05-10T11:51:31.285Z,32.80
2023-05-10T11:53:59.603Z,32.92
2023-05-10T11:56:29.067Z,32.43
2023-05-10T11:58:58.318Z,32.80
2023-05-10T12:01:27.556Z,32.82
2023-05-10T12:04:00.016Z,32.97
2023-05-10T12:06:29.635Z,32.59
2023-05-10T12:08:57.766Z,32.82
2023-05-10T12:11:28.319Z,32.74
2023-05-10T12:13:58.491Z,32.69
2023-05-10T12:16:28.132Z,32.34
2023-05-10T12:18:58.307Z,32.48
2023-05-10T12:21:27.274Z,32.38
2023-05-10T12:23:56.636Z,32.55
2023-05-10T12:26:25.670Z,32.47
2023-05-10T12:28:53.789Z,32.00
2023-05-10T12:31:23.517Z,32.07
2023-05-10T12:33:51.620Z,32.08
2023-05-10T12:36:26.411Z,31.79
2023-05-10T12:39:05.959Z,32.13
2023-05-10T12:41:33.962Z,31.58
2023-05-10T12:44:01.992Z,31.30
2023-05-10T12:46:32.294Z,31.29
2023-05-10T12:49:08.523Z,30.91
2023-05-10T12:51:37.392Z,30.83
2023-05-10T12:54:06.034Z,30.84
2023-05-10T12:56:34.125Z,30.78
2023-05-10T12:59:02.187Z,30.64
2023-05-10T13:01:31.794Z,31.06
2023-05-10T13:04:01.194Z,30.71
2023-05-10T13:06:29.382Z,30.51
2023-05-10T13:08:58.610Z,30.28
2023-05-10T13:11:26.736Z,30.08
2023-05-10T13:13:54.761Z,30.14
2023-05-10T13:16:22.870Z,29.85
2023-05-10T13:18:52.494Z,29.45
2023-05-10T13:21:20.567Z,29.91
2023-05-10T13:23:48.730Z,29.70
2023-05-10T13:26:16.791Z,29.77
2023-05-10T13:28:47.132Z,29.80
2023-05-10T13:31:15.247Z,29.61
2023-05-10T13:33:43.361Z,30.13
2023-05-10T13:36:12.820Z,29.28
2023-05-10T13:38:40.917Z,29.05
2023-05-10T13:41:09.147Z,28.00
2023-05-10T13:43:37.313Z,28.71
2023-05-10T13:46:05.756Z,28.55
2023-05-10T13:48:34.099Z,28.89
2023-05-10T13:51:02.692Z,28.94
2023-05-10T13:53:32.155Z,28.54
2023-05-10T13:56:00.248Z,29.34
2023-05-10T13:58:28.316Z,29.38
2023-05-10T14:00:56.383Z,29.26
2023-05-10T14:03:24.481Z,29.46
2023-05-10T14:05:52.597Z,29.18
2023-05-10T14:08:21.250Z,28.95
2023-05-10T14:10:51.762Z,29.35
2023-05-10T14:13:19.861Z,29.04
2023-05-10T14:15:47.906Z,29.30
2023-05-10T14:18:15.963Z,28.88
2023-05-10T14:20:44.011Z,29.42
2023-05-10T14:23:12.355Z,29.13
2023-05-10T14:25:42.742Z,29.74
2023-05-10T14:28:12.857Z,30.00
2023-05-10T14:30:40.974Z,30.79
2023-05-10T14:33:09.474Z,31.64
2023-05-10T14:35:37.636Z,31.00
2023-05-10T14:38:06.442Z,31.34
2023-05-10T14:40:34.589Z,30.67
2023-05-10T14:43:02.909Z,31.10
2023-05-10T14:45:32.664Z,30.48
2023-05-10T14:48:00.928Z,30.79
2023-05-10T14:53:00.162Z,30.76
2023-05-10T14:55:28.367Z,30.71
2023-05-10T14:57:56.379Z,30.88
2023-05-10T15:00:24.637Z,30.99
2023-05-10T15:02:54.585Z,31.29
2023-05-10T15:05:23.214Z,30.96
2023-05-10T15:07:51.644Z,31.19
2023-05-10T15:10:20.615Z,31.05
2023-05-10T15:12:48.643Z,31.24
2023-05-10T15:15:16.958Z,31.59
2023-05-10T15:17:45.204Z,31.46
2023-05-10T15:20:15.081Z,31.70
2023-05-10T15:22:43.240Z,31.82
2023-05-10T15:25:11.713Z,32.12
2023-05-10T15:27:39.723Z,32.57
2023-05-10T15:30:09.341Z,33.60
2023-05-10T15:32:38.161Z,34.27
2023-05-10T15:35:07.164Z,34.18
2023-05-10T15:37:36.703Z,32.84
2023-05-10T15:40:05.221Z,32.89
2023-05-10T15:42:33.509Z,32.96
2023-05-10T15:45:01.696Z,32.84
2023-05-10T15:47:32.881Z,32.62
2023-05-10T15:50:01.193Z,32.74
2023-05-10T15:52:29.416Z,32.66
2023-05-10T15:54:58.968Z,32.43
2023-05-10T15:57:26.957Z,32.31
2023-05-10T15:59:55.036Z,31.82
2023-05-10T16:02:23.665Z,31.64
2023-05-10T16:04:51.889Z,31.74
2023-05-10T16:07:20.027Z,31.29
2023-05-10T16:09:49.475Z,31.30
2023-05-10T16:12:19.090Z,30.96
2023-05-10T16:14:47.973Z,31.60
2023-05-10T16:17:16.464Z,31.36
2023-05-10T16:19:44.680Z,31.24
2023-05-10T16:22:12.815Z,31.88
2023-05-10T16:24:40.966Z,31.50
2023-05-10T16:27:09.160Z,31.84
2023-05-10T16:29:38.712Z,31.60
2023-05-10T16:32:07.173Z,32.59
2023-05-10T16:34:35.252Z,32.73
2023-05-10T16:37:03.380Z,33.19
2023-05-10T16:39:31.584Z,33.83
2023-05-10T16:41:59.638Z,34.75
2023-05-10T16:44:27.701Z,35.29
2023-05-10T16:46:57.169Z,36.03
2023-05-10T16:49:26.516Z,36.50
2023-05-10T16:51:54.560Z,36.34
2023-05-10T16:54:22.924Z,36.59
2023-05-10T16:56:51.083Z,36.91
2023-05-10T16:59:19.161Z,36.91
2023-05-10T17:01:47.401Z,37.57
2023-05-10T17:04:17.867Z,37.77
2023-05-10T17:06:45.933Z,37.68
2023-05-10T17:09:14.083Z,37.44
2023-05-10T17:11:44.212Z,37.87
2023-05-10T17:14:12.470Z,38.37
2023-05-10T17:16:40.617Z,38.66
2023-05-10T17:19:09.589Z,38.73
2023-05-10T17:21:39.225Z,39.42
2023-05-10T17:24:07.640Z,39.45
2023-05-10T17:26:35.965Z,39.29
2023-05-10T17:29:04.651Z,38.87
2023-05-10T17:31:33.567Z,38.84
2023-05-10T17:34:04.728Z,38.77
2023-05-10T17:36:33.700Z,38.50
2023-05-10T17:39:03.350Z,38.65
2023-05-10T17:41:31.391Z,38.63
2023-05-10T17:43:59.593Z,39.35
2023-05-10T17:46:27.964Z,39.46
2023-05-10T17:48:56.080Z,39.60
2023-05-10T17:51:24.240Z,39.17
2023-05-10T17:53:52.835Z,39.72
2023-05-10T17:56:23.386Z,39.95
2023-05-10T17:58:51.528Z,40.60
2023-05-10T18:01:19.793Z,40.44
2023-05-10T18:03:51.971Z,40.15
2023-05-10T18:06:20.006Z,41.02
2023-05-10T18:08:48.141Z,40.62
2023-05-10T18:11:16.843Z,41.14
2023-05-10T18:13:46.388Z,40.70
2023-05-10T18:16:14.610Z,41.13
2023-05-10T18:18:43.003Z,41.35
2023-05-10T18:21:11.278Z,42.27
2023-05-10T18:23:39.476Z,42.18
2023-05-10T18:26:09.267Z,43.00
2023-05-10T18:28:37.821Z,43.16
2023-05-10T18:31:07.445Z,43.85
2023-05-10T18:33:35.521Z,43.28
2023-05-10T18:36:04.331Z,43.70
2023-05-10T18:38:32.596Z,44.26
2023-05-10T18:41:00.822Z,44.65
2023-05-10T18:43:29.173Z,44.48
2023-05-10T18:45:57.400Z,44.30
2023-05-10T18:48:26.982Z,44.28
2023-05-10T18:50:55.098Z,44.27
2023-05-10T18:53:23.418Z,44.50
2023-05-10T18:55:57.052Z,44.90
2023-05-10T18:58:25.753Z,45.09
2023-05-10T19:00:54.147Z,45.21
2023-05-10T19:03:22.697Z,44.67
2023-05-10T19:05:52.195Z,45.19
2023-05-10T19:08:20.371Z,45.02
2023-05-10T19:10:48.480Z,45.60
2023-05-10T19:13:16.595Z,45.42
2023-05-10T19:15:45.960Z,45.24
2023-05-10T19:18:15.351Z,45.80
2023-05-10T19:20:43.411Z,45.43
2023-05-10T19:23:12.919Z,45.91
2023-05-10T19:25:42.418Z,46.09
2023-05-10T19:28:11.312Z,45.99
2023-05-10T19:30:39.662Z,46.35
2023-05-10T19:33:09.336Z,46.32
2023-05-10T19:35:39.026Z,46.13
2023-05-10T19:38:07.228Z,46.59
2023-05-10T19:40:36.747Z,46.01
2023-05-10T19:43:04.940Z,46.03
2023-05-10T19:45:33.986Z,46.04
2023-05-10T19:48:02.630Z,45.87
2023-05-10T19:50:30.857Z,45.68
2023-05-10T19:53:00.623Z,45.83
2023-05-10T19:55:30.034Z,45.77
2023-05-10T19:58:01.539Z,45.62
2023-05-10T20:00:29.816Z,46.04
2023-05-10T20:02:57.964Z,45.88
2023-05-10T20:05:26.308Z,46.19
2023-05-10T20:07:54.738Z,45.87
2023-05-10T20:10:25.164Z,45.87
2023-05-10T20:12:54.705Z,46.22
2023-05-10T20:15:24.892Z,45.97
2023-05-10T20:17:53.981Z,46.24
2023-05-10T20:20:22.926Z,45.92
2023-05-10T20:22:51.418Z,46.18
2023-05-10T20:25:20.329Z,46.48
2023-05-10T20:27:50.970Z,46.70
2023-05-10T20:30:19.797Z,46.94
2023-05-10T20:32:49.731Z,46.74
2023-05-10T20:35:18.154Z,46.54
2023-05-10T20:37:48.428Z,47.07
2023-05-10T20:40:16.743Z,46.99
2023-05-10T20:42:45.119Z,46.70
2023-05-10T20:45:13.593Z,46.36
2023-05-10T20:47:42.127Z,46.49
2023-05-10T20:50:13.514Z,46.56
2023-05-10T20:52:41.605Z,46.51
2023-05-10T20:55:10.601Z,46.74
2023-05-10T20:57:38.688Z,46.71
2023-05-10T21:00:08.329Z,46.62
2023-05-10T21:02:36.438Z,46.99
2023-05-10T21:05:05.332Z,46.73
2023-05-10T21:07:34.882Z,46.54
2023-05-10T21:10:03.276Z,46.85
2023-05-10T21:12:31.497Z,47.04
2023-05-10T21:14:59.668Z,46.95
2023-05-10T21:17:27.861Z,46.79
2023-05-10T21:19:56.017Z,46.41
2023-05-10T21:22:24.063Z,46.57
2023-05-10T21:24:53.505Z,47.01
2023-05-10T21:27:21.694Z,46.54
2023-05-10T21:29:49.918Z,46.79
2023-05-10T21:32:18.040Z,46.73
2023-05-10T21:34:46.124Z,46.68
2023-05-10T21:37:14.113Z,46.74
2023-05-10T21:39:42.201Z,46.82
2023-05-10T21:42:11.736Z,47.23
2023-05-10T21:44:39.911Z,47.55
2023-05-10T21:47:08.065Z,47.30
2023-05-10T21:49:36.473Z,47.51
2023-05-10T21:52:04.594Z,47.12
2023-05-10T21:54:32.746Z,47.68
2023-05-10T21:57:00.852Z,47.22
2023-05-10T21:59:30.313Z,47.58
2023-05-10T22:01:58.492Z,47.93
2023-05-10T22:04:26.665Z,48.13
2023-05-10T22:06:54.786Z,47.69
2023-05-10T22:09:24.402Z,48.13
2023-05-10T22:11:52.649Z,48.26
2023-05-10T22:14:20.806Z,48.28
2023-05-10T22:16:50.510Z,48.52
2023-05-10T22:19:18.737Z,48.04
2023-05-10T22:21:46.758Z,48.09
2023-05-10T22:24:14.794Z,47.86
2023-05-10T22:26:42.877Z,48.31
2023-05-10T22:29:11.149Z,48.98
2023-05-10T22:31:39.597Z,48.82
2023-05-10T22:34:09.201Z,49.12
2023-05-10T22:36:37.404Z,49.29
2023-05-10T22:39:05.601Z,49.12
2023-05-10T22:41:34.384Z,49.14
2023-05-10T22:44:04.977Z,48.47
2023-05-10T22:46:33.241Z,49.06
2023-05-10T22:49:01.352Z,48.31
2023-05-10T22:51:30.904Z,48.97
2023-05-10T22:53:59.012Z,48.44
2023-05-10T22:56:27.269Z,48.11
2023-05-10T22:58:55.617Z,48.78
2023-05-10T23:01:23.796Z,48.75
2023-05-10T23:03:52.068Z,48.36
2023-05-10T23:06:20.248Z,49.04
2023-05-10T23:08:49.949Z,49.20
2023-05-10T23:11:18.037Z,48.80
2023-05-10T23:13:46.255Z,48.93
2023-05-10T23:16:14.360Z,48.78
2023-05-10T23:18:42.593Z,49.52
2023-05-10T23:21:10.835Z,49.41
2023-05-10T23:23:38.921Z,49.43
2023-05-10T23:26:08.942Z,49.89
2023-05-10T23:28:37.100Z,50.08
2023-05-10T23:31:05.218Z,50.68
2023-05-10T23:33:33.356Z,50.49
2023-05-10T23:36:01.524Z,51.11
2023-05-10T23:38:29.560Z,50.13
2023-05-10T23:40:57.583Z,51.00
2023-05-10T23:43:27.048Z,51.11
2023-05-10T23:45:55.407Z,52.02
2023-05-10T23:48:23.594Z,51.63
2023-05-10T23:50:51.886Z,51.80
2023-05-10T23:53:20.383Z,52.52
2023-05-10T23:55:48.497Z,52.99
2023-05-10T23:58:16.545Z,53.29
